Norman Y. Mineta San Jose International Airport
KSJC : now visible

Airfield :











YOU CAN JOIN US ON...

 
LOGIN :

Register | Disclaimer

   EN    FR    IT 

 









Legend :    VFR   Marginal VFR   IFR   Intensive IFR   Very Intensive IFR
Visi :
Ceiling :
>= 8 km
>= 3000ft
5 to 8 km
1000 to 3000 ft
1500m to 5 km
500 to 1000 ft
800 to 1500m
200 to 500 ft
< 800m
< 200 ft
Symbols :   Thunderstorms  Fog  Heavy snow  Heavy precipitations  Wind > 20 kt






- Airport Elevation : 62 ft
- IATA code : SJC


KSJC - Norman Y. Mineta San Jose International

CURRENT METAR :
  • 072053Z 32008KT 10SM FEW043 SCT055 16/06 A3009 RMK AO2 RAB31E40 SLP189 P0000 60000 T01610056 58014

EXPIRED METARs :
  • 071953Z VRB04KT 10SM FEW050 SCT060 15/06 A3011 RMK AO2 SLP196 T01500061
  • 071853Z 33005KT 10SM FEW009 FEW055 13/04 A3012 RMK AO2 SLP200 T01330039

TAF KSJC
Valid from the 07 at 18:00 until the 08 at 18:00 UTC


071722Z 0718/0818 VRB04KT P6SM FEW010 FEW200
FM072100 29007KT P6SM SCT200
FM072300 31013KT P6SM SCT200
FM080500 VRB04KT P6SM SCT025 BKN200
FM081200 14007KT P6SM BKN025 BKN200



MET'MAP, your aeronautical weather chart ! - Copyright ORBIFLY December 2007 - Disclaimer

ORBIFLY MET'MAP TEAM :

Programming & Development : Alexandra Zaïnal
Concept & original design : Baudouin d'Aumeries
Assistance for programming : Marc-Olivier Méhu
Technical & hardware support : Manuel Goepfert

Contact : metmap@orbifly.com




SOURCES & CREDITS :

   NOAA       Earth
Advisory